Flugschule und Pilotenausbildung

Wir bieten eine professionelle und umfassende Ausbildung durch unsere erfahrenen Piloten, Fluglehrer und Prüfer, die Sie zum Erwerb der folgenden Lizenzen führen:

 

Schulungsräume

Je nach Teilnehmerzahl findet der Unterricht in zwei vollausgestatteten Räumen statt.

 Bis 5 Teilnehmer in Feldgeding bei Dachau:

Schulungsraum Feldgeding

Bei 6 oder mehr Teilnehmern in Gröbenzell:

Schulungsraum Gröbenzell

Flugzeuge

Wir schulen auf unseren eigenen Flugzeugen. Mehr Informationen zu unseren Flugzeugen finden Sie hier ...

 

Flugwetter Augsburg

[source: ADDS]
METAR
EDMA 080820Z 31005KT CAVOK 23/17 Q1022 =
TAF EDMA 080800Z 0809/0818 VRB03KT CAVOK TEMPO 0810/0816 04005KT
TAF
TAF EDMA 080800Z 0809/0818 VRB03KT CAVOK TEMPO 0810/0816 04005KT =
Cookies erleichtern die Bereitstellung unserer Dienste. Mit der Nutzung unserer Dienste erklären Sie sich damit einverstanden, dass wir Cookies verwenden.
Weitere Informationen Ok